Flight Track Log - Related Links

Times and Time Zones

All times are in EDT time to prevent confusion due to time zone crossing. See the SWA303 flight status page for this flight to view local times or setup timezone preferences in your user account.

Time Position Orientation Groundspeed Altitude Reporting Facility
EDT Latitude Longitude Course Direction KTS MPH feet Rate Location/Type
Fri 03:00:16 PM 39.8833 -104.5500 84° East 204 235 8,000  Level Denver TRACON
Fri 03:01:16 PM 39.8833 -104.4500 90° East 275 316 10,500 2,638 Climbing Denver TRACON
Fri 03:02:12 PM 39.8733 -104.3769 100° East 285 328 13,100 2,672 Climbing Denver Center
Fri 03:03:15 PM 39.8736 -104.2247 90° East 354 407 15,800 2,688 Climbing Denver Center
Fri 03:04:17 PM 39.8725 -104.0914 91° East 373 429 18,700 2,661 Climbing Denver Center
Fri 03:05:00 PM 39.9293 -103.8380 84° East  Level Estimated
Fri 03:05:19 PM 39.8847 -103.9453 84° East 377 434 21,300  Level Denver Center
Fri 03:06:21 PM 39.9006 -103.8000 82° East 398 458 23,900 2,371 Climbing Denver Center
Fri 03:07:23 PM 39.9164 -103.6569 82° East 397 457 26,200 1,897 Climbing Denver Center
Fri 03:08:37 PM 39.9339 -103.5033 82° East 419 482 28,200 1,897 Climbing Denver Center
Fri 03:09:39 PM 39.9556 -103.2947 82° East 436 502 30,500 1,694 Climbing Denver Center
Fri 03:10:41 PM 39.9722 -103.1342 82° East 444 511 31,700 1,210 Climbing Denver Center
Fri 03:11:43 PM 39.9883 -102.9667 83° East 458 527 33,000 1,452 Climbing Denver Center
Fri 03:12:45 PM 40.0067 -102.7983 82° East 465 535 34,700 1,016 Climbing Denver Center
Fri 03:13:47 PM 40.0239 -102.6203 84° East 465 535 35,100 629 Climbing Denver Center
Fri 03:14:00 PM 40.0240 -102.5890 84° East  Level FlightAware Approximate
Fri 03:14:49 PM 40.0389 -102.4581 83° East 471 542 36,000  Level Denver Center
Fri 03:16:03 PM 40.0567 -102.2689 83° East 472 543 37,000 438 Climbing Denver Center
Fri 03:17:06 PM 40.0778 -102.0497 83° East 477 549 37,000  Level Denver Center
Fri 03:18:08 PM 40.0919 -101.8853 84° East 478 550 37,000  Level Denver Center
Fri 03:19:10 PM 40.1106 -101.6972 83° East 470 541 37,000  Level Denver Center
Fri 03:20:12 PM 40.1244 -101.5319 84° East 477 549 37,000  Level Denver Center
Fri 03:21:14 PM 40.1411 -101.3406 83° East 477 549 37,000 290 Level Denver Center
Fri 03:22:16 PM 40.1561 -101.1753 83° East 480 552 37,600 629 Climbing Denver Center
Fri 03:23:18 PM 40.1725 -100.9772 84° East 491 565 38,300 677 Climbing Denver Center
Fri 03:24:20 PM 40.1867 -100.8058 84° East 496 571 39,000 309 Climbing Denver Center
Fri 03:25:34 PM 40.2028 -100.6094 84° East 492 566 39,000  Level Denver Center
Fri 03:26:36 PM 40.2072 -100.4125 88° East 488 562 39,000  Level Denver Center
Fri 03:27:38 PM 40.2100 -100.2158 89° East 485 558 39,000  Level Denver Center
Fri 03:28:40 PM 40.2131 -100.0469 89° East 487 560 39,000  Level Denver Center
Fri 03:29:42 PM 40.2147 -99.8456 89° East 485 558 39,000  Level Denver Center
Fri 03:30:44 PM 40.2164 -99.6692 89° East 486 559 39,000  Level Denver Center
Fri 03:31:46 PM 40.2189 -99.4953 89° East 481 554 39,000  Level Denver Center
Fri 03:32:48 PM 40.2200 -99.3206 89° East 481 554 39,000  Level Denver Center
Fri 03:33:49 PM 40.2208 -99.1797 90° East 484 557 39,000  Level Denver Center
Fri 03:34:52 PM 40.2222 -98.9703 89° East 482 555 39,000  Level Denver Center
Fri 03:35:30 PM 40.2222 -98.8306 90° East 483 556 39,000  Level Minneapolis Center
Fri 03:36:32 PM 40.2231 -98.6553 90° East 483 556 39,000  Level Minneapolis Center
Fri 03:37:34 PM 40.2231 -98.4794 90° East 485 558 39,000  Level Minneapolis Center
Fri 03:38:36 PM 40.2231 -98.3069 90° East 481 554 39,000  Level Minneapolis Center
Fri 03:39:38 PM 40.2228 -98.1328 90° East 480 552 39,000  Level Minneapolis Center
Fri 03:40:39 PM 40.2219 -97.9578 90° East 482 555 39,000  Level Minneapolis Center
Fri 03:41:41 PM 40.2206 -97.7475 90° East 483 556 39,000  Level Minneapolis Center
Fri 03:42:43 PM 40.2194 -97.5733 90° East 482 555 39,000  Level Minneapolis Center
Fri 03:43:45 PM 40.2175 -97.3967 91° East 485 558 39,000  Level Minneapolis Center
Fri 03:44:47 PM 40.2156 -97.2269 91° East 484 557 39,000  Level Minneapolis Center
Fri 03:45:49 PM 40.2133 -97.0489 91° East 487 560 39,000  Level Minneapolis Center
Fri 03:46:51 PM 40.2114 -96.8728 91° East 488 562 39,000  Level Minneapolis Center
Fri 03:47:53 PM 40.2078 -96.6608 91° East 488 562 39,000  Level Minneapolis Center
Fri 03:48:55 PM 40.2058 -96.4839 91° East 489 563 39,000  Level Minneapolis Center
Fri 03:49:57 PM 40.2017 -96.3056 92° East 490 564 39,000  Level Minneapolis Center
Fri 03:50:58 PM 40.1992 -96.1283 91° East 491 565 39,000  Level Minneapolis Center
Fri 03:52:00 PM 40.1994 -95.9489 90° East 494 568 39,000  Level Minneapolis Center
Fri 03:53:02 PM 40.1983 -95.7681 90° East 498 573 39,000  Level Minneapolis Center
Fri 03:54:04 PM 40.1981 -95.5550 90° East 492 566 39,000  Level Minneapolis Center
Fri 03:55:06 PM 40.1967 -95.4131 91° East 491 565 39,000  Level Minneapolis Center
Fri 03:56:08 PM 40.1958 -95.1992 90° East 491 565 39,000  Level Minneapolis Center
Fri 03:57:10 PM 40.1936 -95.0214 91° East 491 565 39,000  Level Minneapolis Center
Fri 03:58:12 PM 40.1892 -94.8453 92° East 489 563 39,000  Level Minneapolis Center
Fri 03:59:14 PM 40.1864 -94.6314 91° East 490 564 39,000  Level Minneapolis Center
Fri 04:00:16 PM 40.1842 -94.4697 91° East 493 567 39,000  Level Minneapolis Center
Fri 04:01:14 PM 40.1797 -94.3044 92° East 495 570 39,000  Level Kansas City Center
Fri 04:02:18 PM 40.1758 -94.1014 91° East 498 573 39,000  Level Kansas City Center
Fri 04:03:18 PM 40.1692 -93.9292 93° East 504 580 39,000  Level Kansas City Center
Fri 04:04:22 PM 40.1650 -93.7492 92° East 501 577 39,000  Level Kansas City Center
Fri 04:05:23 PM 40.1608 -93.5319 91° East 502 578 39,000  Level Kansas City Center
Fri 04:06:26 PM 40.1558 -93.3511 92° East 503 579 39,000  Level Kansas City Center
Fri 04:07:27 PM 40.1508 -93.1706 92° East 504 580 39,000  Level Kansas City Center
Fri 04:08:29 PM 40.1461 -92.9667 92° East 498 573 39,000  Level Kansas City Center
Fri 04:09:30 PM 40.1400 -92.7911 93° East 502 578 39,000  Level Kansas City Center
Fri 04:10:33 PM 40.1319 -92.5872 93° East 502 578 39,000  Level Kansas City Center
Fri 04:11:37 PM 40.1219 -92.4161 94° East 497 572 39,000  Level Kansas City Center
Fri 04:12:38 PM 40.1044 -92.2450 98° East 504 580 39,000  Level Kansas City Center
Fri 04:13:38 PM 40.0847 -92.0322 97° East 500 575 39,000  Level Kansas City Center
Fri 04:14:42 PM 40.0672 -91.8547 97° East 499 574 39,000  Level Kansas City Center
Fri 04:15:42 PM 40.0506 -91.6778 97° East 497 572 39,000  Level Kansas City Center
Fri 04:16:46 PM 40.0331 -91.4981 97° East 501 577 39,000  Level Kansas City Center
Fri 04:17:47 PM 40.0147 -91.3194 98° East 502 578 39,000  Level Kansas City Center
Fri 04:18:51 PM 39.9931 -91.1042 97° East 502 578 39,000  Level Kansas City Center
Fri 04:19:52 PM 39.9769 -90.9364 97° East 506 582 39,000  Level Kansas City Center
Fri 04:20:53 PM 39.9581 -90.7556 98° East 506 582 39,000  Level Kansas City Center
Fri 04:21:54 PM 39.9347 -90.5381 98° East 507 583 39,000  Level Kansas City Center
Fri 04:22:58 PM 39.9156 -90.3564 98° East 508 585 39,000  Level Kansas City Center
Fri 04:24:01 PM 39.8956 -90.1736 98° East 511 588 39,000  Level Kansas City Center
Fri 04:25:01 PM 39.8753 -89.9928 98° East 510 587 39,000  Level Kansas City Center
Fri 04:26:03 PM 39.8547 -89.8094 98° East 512 589 39,000  Level Kansas City Center
Fri 04:27:07 PM 39.8400 -89.6253 96° East 516 594 39,000  Level Kansas City Center
Fri 04:28:08 PM 39.8400 -89.4022 90° East 516 594 39,000  Level Kansas City Center
Fri 04:29:09 PM 39.8406 -89.2147 90° East 518 596 39,000  Level Kansas City Center
Fri 04:30:13 PM 39.8414 -89.0267 90° East 520 598 39,000  Level Kansas City Center
Fri 04:31:14 PM 39.8417 -88.8383 90° East 522 601 39,000  Level Kansas City Center
Fri 04:32:15 PM 39.8417 -88.6483 90° East 524 603 39,000  Level Kansas City Center
Fri 04:33:18 PM 39.8422 -88.4217 90° East 524 603 39,000  Level Kansas City Center
Fri 04:34:21 PM 39.8425 -88.2317 90° East 525 604 39,000  Level Kansas City Center
Fri 04:35:22 PM 39.8264 -88.0386 96° East 524 603 39,000  Level Kansas City Center
Fri 04:35:45 PM 39.8139 -87.9742 104° East 522 601 39,000  Level Indianapolis Center
Fri 04:36:47 PM 39.7856 -87.7881 101° East 521 600 39,000  Level Indianapolis Center
Fri 04:37:49 PM 39.7589 -87.6011 100° East 523 602 39,000  Level Indianapolis Center
Fri 04:38:51 PM 39.7425 -87.3825 95° East 522 601 39,000  Level Indianapolis Center
Fri 04:39:53 PM 39.7578 -87.1931 84° East 523 602 39,000  Level Indianapolis Center
Fri 04:40:55 PM 39.7703 -87.0042 85° East 523 602 39,000  Level Indianapolis Center
Fri 04:41:57 PM 39.7819 -86.8144 85° East 523 602 39,000  Level Indianapolis Center
Fri 04:42:59 PM 39.7939 -86.6247 85° East 523 602 39,000  Level Indianapolis Center
Fri 04:44:01 PM 39.8056 -86.4325 85° East 525 604 39,000  Level Indianapolis Center
Fri 04:45:03 PM 39.8169 -86.2331 86° East 526 605 39,000  Level Indianapolis Center
Fri 04:46:06 PM 39.8297 -86.0397 85° East 527 606 39,000  Level Indianapolis Center
Fri 04:47:08 PM 39.8400 -85.8478 86° East 528 608 39,000  Level Indianapolis Center
Fri 04:48:10 PM 39.8522 -85.6244 86° East 527 606 39,000  Level Indianapolis Center
Fri 04:49:12 PM 39.8633 -85.4322 86° East 528 608 39,000  Level Indianapolis Center
Fri 04:50:14 PM 39.8733 -85.2406 86° East 529 609 39,000  Level Indianapolis Center
Fri 04:51:16 PM 39.8825 -85.0489 86° East 529 609 39,000  Level Indianapolis Center
Fri 04:52:18 PM 39.8936 -84.8439 86° East 529 609 39,000  Level Indianapolis Center
Fri 04:53:20 PM 39.9017 -84.6517 87° East 527 606 39,000  Level Indianapolis Center
Fri 04:54:22 PM 39.9108 -84.4597 86° East 526 605 39,000  Level Indianapolis Center
Fri 04:55:24 PM 39.9192 -84.2694 87° East 522 601 39,000  Level Indianapolis Center
Fri 04:56:26 PM 39.9275 -84.0786 87° East 523 602 39,000  Level Indianapolis Center
Fri 04:57:28 PM 39.9342 -83.8886 87° East 520 598 39,000  Level Indianapolis Center
Fri 04:58:30 PM 39.9417 -83.7008 87° East 520 598 39,000  Level Indianapolis Center
Fri 04:59:32 PM 39.9506 -83.4742 87° East 520 598 39,000  Level Indianapolis Center
Fri 05:00:34 PM 39.9567 -83.3086 87° East 521 600 39,000  Level Indianapolis Center
Fri 05:01:36 PM 39.9636 -83.0850 88° East 522 601 39,000  Level Indianapolis Center
Fri 05:02:38 PM 39.9700 -82.9061 87° East 523 602 39,000  Level Indianapolis Center
Fri 05:03:40 PM 39.9756 -82.7169 88° East 523 602 39,000  Level Indianapolis Center
Fri 05:04:42 PM 39.9817 -82.5158 88° East 520 598 39,000  Level Indianapolis Center
Fri 05:05:44 PM 39.9861 -82.3247 88° East 517 595 39,000  Level Indianapolis Center
Fri 05:06:46 PM 39.9911 -82.1381 88° East 512 589 39,000  Level Indianapolis Center
Fri 05:07:48 PM 39.9950 -81.9497 88° East 514 592 39,000  Level Indianapolis Center
Fri 05:08:51 PM 40.0003 -81.7347 88° East 516 594 39,000  Level Indianapolis Center
Fri 05:09:53 PM 40.0042 -81.5483 88° East 512 589 39,000  Level Indianapolis Center
Fri 05:10:55 PM 39.9978 -81.3597 92° East 519 597 39,000  Level Indianapolis Center
Fri 05:11:57 PM 39.9561 -81.1861 107° East 526 605 39,000  Level Indianapolis Center
Fri 05:12:21 PM 39.9408 -81.1083 104° East 516 594 39,000 -143 Level Cleveland Center
Fri 05:13:21 PM 39.8936 -80.9322 109° East 510 587 38,800 -700 Descending Cleveland Center
Fri 05:14:21 PM 39.8378 -80.7317 110° East 528 608 37,600 -1,500 Descending Cleveland Center
Fri 05:15:21 PM 39.7900 -80.5481 109° East 528 608 35,800 -1,350 Descending Cleveland Center
Fri 05:16:21 PM 39.7397 -80.3644 110° East 528 608 34,900 -950 Descending Cleveland Center
Fri 05:17:21 PM 39.6911 -80.1783 109° East 534 615 33,900 -1,098 Descending Cleveland Center
Fri 05:18:54 PM 39.6250 -79.9347 109° East 522 601 32,100 -1,481 Descending Washington Center
Fri 05:19:55 PM 39.5747 -79.7619 111° Southeast 516 594 30,100 -2,000 Descending Washington Center
Fri 05:20:54 PM 39.5325 -79.5981 108° East 501 577 28,100 -1,600 Descending Washington Center
Fri 05:21:55 PM 39.4878 -79.4397 110° East 486 559 26,900 -1,613 Descending Washington Center
Fri 05:22:53 PM 39.4550 -79.2847 105° East 460 529 24,900 -1,932 Descending Washington Center
Fri 05:23:53 PM 39.4247 -79.1139 103° East 454 522 23,100 -2,500 Descending Washington Center
Fri 05:24:53 PM 39.3956 -78.9619 104° East 436 502 19,900 -2,164 Descending Washington Center
Fri 05:25:55 PM 39.3686 -78.8131 103° East 436 502 18,700 -1,350 Descending Washington Center
Fri 05:26:53 PM 39.3450 -78.6806 103° East 418 481 17,200 -2,017 Descending Washington Center
Fri 05:27:54 PM 39.3192 -78.5428 104° East 397 457 14,700 -2,231 Descending Washington Center
Fri 05:28:54 PM 39.2953 -78.4103 103° East 387 445 12,700 -1,815 Descending Washington Center
Fri 05:29:53 PM 39.2500 -78.2958 117° Southeast 369 425 11,100 -1,400 Descending Washington Center
Fri 05:30:54 PM 39.1764 -78.2264 144° Southeast 331 381 9,900 -1,230 Descending Washington Center
Fri 05:31:55 PM 39.1069 -78.1650 146° Southeast 318 366 8,600 -942 Descending Washington Center
Fri 05:32:55 PM 39.0392 -78.1092 147° Southeast 306 352 8,000 -508 Descending Washington Center
Fri 05:33:53 PM 39.0033 -78.0250 119° Southeast 266 306 7,600 -908 Descending Washington Center
Fri 05:34:54 PM 38.9889 -77.9203 100° East 266 306 6,200 -787 Descending Washington Center
Fri 05:35:55 PM 38.9781 -77.8347 99° East 271 312 6,000 -101 Descending Washington Center
Fri 05:36:53 PM 38.9611 -77.7300 102° East 276 318 6,000  Level Washington Center
Fri 05:38:12 PM 38.9333 -77.6167 107° East 274 315 6,000 -302 Level Potomac TRACON
Fri 05:39:12 PM 38.8500 -77.5833 163° South 267 307 5,300 -1,000 Descending Potomac TRACON
Fri 05:40:12 PM 38.8000 -77.5333 142° Southeast 265 305 4,000 -744 Descending Potomac TRACON
Fri 05:41:13 PM 38.8333 -77.4667 57° Northeast 205 236 3,800 -942 Descending Potomac TRACON
Fri 05:42:13 PM 38.8667 -77.4667 360° North 158 182 2,100 -1,450 Descending Potomac TRACON
Fri 05:43:13 PM 38.9167 -77.4667 360° North 137 158 900 -1,200 Descending Potomac TRACON
Fri 05:45:00 PM 38.9333 -77.4500 165° South  Level FlightAware Approximate
Fri 05:52:00 PM 38.9474 -77.4599 165° South  Level Estimated
Fri 05:53:00 PM 38.9474 -77.4599 165° South  Level Estimated
Fri 05:54:00 PM 38.9474 -77.4599 165° South  Level Estimated

Login

Don't have an account? Register now (free) for customized features, flight alerts, and more!